sensor_id;sensor_type;location;lat;lon;timestamp;P1;durP1;ratioP1;P2;durP2;ratioP2
19087;SDS011;9676;50.916;13.352;2023-05-07T00:01:26;12.33;;;11.23;;
19087;SDS011;9676;50.916;13.352;2023-05-07T00:04:15;11.97;;;10.87;;
19087;SDS011;9676;50.916;13.352;2023-05-07T00:07:05;12.10;;;10.90;;
19087;SDS011;9676;50.916;13.352;2023-05-07T00:09:55;11.97;;;10.87;;
19087;SDS011;9676;50.916;13.352;2023-05-07T00:12:45;12.13;;;10.93;;
19087;SDS011;9676;50.916;13.352;2023-05-07T00:15:34;11.80;;;10.73;;
19087;SDS011;9676;50.916;13.352;2023-05-07T00:18:24;12.27;;;11.10;;
19087;SDS011;9676;50.916;13.352;2023-05-07T00:21:13;11.57;;;10.47;;
19087;SDS011;9676;50.916;13.352;2023-05-07T00:24:03;12.03;;;10.93;;
19087;SDS011;9676;50.916;13.352;2023-05-07T00:26:54;12.50;;;11.30;;
19087;SDS011;9676;50.916;13.352;2023-05-07T00:29:45;12.43;;;11.23;;
19087;SDS011;9676;50.916;13.352;2023-05-07T00:32:34;12.57;;;11.37;;
19087;SDS011;9676;50.916;13.352;2023-05-07T00:35:24;12.63;;;11.43;;
19087;SDS011;9676;50.916;13.352;2023-05-07T00:38:13;14.47;;;12.00;;
19087;SDS011;9676;50.916;13.352;2023-05-07T00:41:03;13.40;;;12.07;;
19087;SDS011;9676;50.916;13.352;2023-05-07T00:43:54;14.33;;;12.93;;
19087;SDS011;9676;50.916;13.352;2023-05-07T00:46:44;13.80;;;12.40;;
19087;SDS011;9676;50.916;13.352;2023-05-07T00:49:37;13.33;;;12.03;;
19087;SDS011;9676;50.916;13.352;2023-05-07T00:52:28;13.33;;;12.00;;
19087;SDS011;9676;50.916;13.352;2023-05-07T00:55:18;14.37;;;12.87;;
19087;SDS011;9676;50.916;13.352;2023-05-07T00:58:08;14.20;;;12.80;;
19087;SDS011;9676;50.916;13.352;2023-05-07T01:00:58;14.10;;;12.77;;
19087;SDS011;9676;50.916;13.352;2023-05-07T01:03:48;14.83;;;13.33;;
19087;SDS011;9676;50.916;13.352;2023-05-07T01:06:38;13.40;;;12.10;;
19087;SDS011;9676;50.916;13.352;2023-05-07T01:09:28;13.40;;;12.10;;
19087;SDS011;9676;50.916;13.352;2023-05-07T01:12:18;13.90;;;12.50;;
19087;SDS011;9676;50.916;13.352;2023-05-07T01:15:08;14.27;;;12.87;;
19087;SDS011;9676;50.916;13.352;2023-05-07T01:18:00;13.87;;;12.47;;
19087;SDS011;9676;50.916;13.352;2023-05-07T01:20:53;14.20;;;12.77;;
19087;SDS011;9676;50.916;13.352;2023-05-07T01:23:46;14.27;;;12.77;;
19087;SDS011;9676;50.916;13.352;2023-05-07T01:26:36;14.13;;;12.73;;
19087;SDS011;9676;50.916;13.352;2023-05-07T01:29:26;14.03;;;12.33;;
19087;SDS011;9676;50.916;13.352;2023-05-07T01:32:16;13.63;;;12.33;;
19087;SDS011;9676;50.916;13.352;2023-05-07T01:35:12;13.33;;;12.03;;
19087;SDS011;9676;50.916;13.352;2023-05-07T01:38:07;14.50;;;11.80;;
19087;SDS011;9676;50.916;13.352;2023-05-07T01:40:59;13.40;;;12.03;;
19087;SDS011;9676;50.916;13.352;2023-05-07T01:43:49;13.17;;;11.97;;
19087;SDS011;9676;50.916;13.352;2023-05-07T01:46:40;13.70;;;12.30;;
19087;SDS011;9676;50.916;13.352;2023-05-07T01:49:30;14.20;;;12.80;;
19087;SDS011;9676;50.916;13.352;2023-05-07T01:52:19;14.20;;;12.70;;
19087;SDS011;9676;50.916;13.352;2023-05-07T01:55:09;14.10;;;12.70;;
19087;SDS011;9676;50.916;13.352;2023-05-07T01:57:59;14.17;;;12.67;;
19087;SDS011;9676;50.916;13.352;2023-05-07T02:00:49;14.50;;;13.00;;
19087;SDS011;9676;50.916;13.352;2023-05-07T02:03:39;13.70;;;12.30;;
19087;SDS011;9676;50.916;13.352;2023-05-07T02:06:36;13.53;;;12.23;;
19087;SDS011;9676;50.916;13.352;2023-05-07T02:09:27;13.30;;;12.00;;
19087;SDS011;9676;50.916;13.352;2023-05-07T02:12:17;12.50;;;11.30;;
19087;SDS011;9676;50.916;13.352;2023-05-07T02:15:09;12.53;;;11.30;;
19087;SDS011;9676;50.916;13.352;2023-05-07T02:17:59;13.37;;;12.10;;
19087;SDS011;9676;50.916;13.352;2023-05-07T02:20:51;12.93;;;11.70;;
19087;SDS011;9676;50.916;13.352;2023-05-07T02:23:41;13.00;;;11.70;;
19087;SDS011;9676;50.916;13.352;2023-05-07T02:26:30;12.40;;;11.30;;
19087;SDS011;9676;50.916;13.352;2023-05-07T02:29:19;13.03;;;11.73;;
19087;SDS011;9676;50.916;13.352;2023-05-07T02:32:12;12.67;;;11.47;;
19087;SDS011;9676;50.916;13.352;2023-05-07T02:35:01;13.07;;;11.83;;
19087;SDS011;9676;50.916;13.352;2023-05-07T02:37:51;12.10;;;11.00;;
19087;SDS011;9676;50.916;13.352;2023-05-07T02:40:41;13.17;;;11.87;;
19087;SDS011;9676;50.916;13.352;2023-05-07T02:43:31;12.53;;;11.30;;
19087;SDS011;9676;50.916;13.352;2023-05-07T02:46:20;13.60;;;12.03;;
19087;SDS011;9676;50.916;13.352;2023-05-07T02:49:19;12.80;;;11.60;;
19087;SDS011;9676;50.916;13.352;2023-05-07T02:52:08;13.60;;;12.30;;
19087;SDS011;9676;50.916;13.352;2023-05-07T02:54:58;14.10;;;12.70;;
19087;SDS011;9676;50.916;13.352;2023-05-07T02:57:47;14.23;;;12.63;;
19087;SDS011;9676;50.916;13.352;2023-05-07T03:00:37;15.97;;;13.33;;
19087;SDS011;9676;50.916;13.352;2023-05-07T03:03:42;13.37;;;12.10;;
19087;SDS011;9676;50.916;13.352;2023-05-07T03:06:32;14.50;;;13.00;;
19087;SDS011;9676;50.916;13.352;2023-05-07T03:09:22;13.80;;;12.37;;
19087;SDS011;9676;50.916;13.352;2023-05-07T03:12:11;14.10;;;12.70;;
19087;SDS011;9676;50.916;13.352;2023-05-07T03:15:00;14.83;;;13.27;;
19087;SDS011;9676;50.916;13.352;2023-05-07T03:17:50;15.10;;;13.60;;
19087;SDS011;9676;50.916;13.352;2023-05-07T03:20:39;14.60;;;13.10;;
19087;SDS011;9676;50.916;13.352;2023-05-07T03:23:30;15.00;;;13.60;;
19087;SDS011;9676;50.916;13.352;2023-05-07T03:26:19;15.53;;;13.93;;
19087;SDS011;9676;50.916;13.352;2023-05-07T03:29:09;15.67;;;13.30;;
19087;SDS011;9676;50.916;13.352;2023-05-07T03:31:58;16.53;;;14.30;;
19087;SDS011;9676;50.916;13.352;2023-05-07T03:34:48;15.40;;;13.83;;
19087;SDS011;9676;50.916;13.352;2023-05-07T03:37:37;15.83;;;14.17;;
19087;SDS011;9676;50.916;13.352;2023-05-07T03:40:29;14.87;;;13.37;;
19087;SDS011;9676;50.916;13.352;2023-05-07T03:43:18;16.10;;;14.40;;
19087;SDS011;9676;50.916;13.352;2023-05-07T03:46:15;15.33;;;13.73;;
19087;SDS011;9676;50.916;13.352;2023-05-07T03:49:05;15.67;;;14.00;;
19087;SDS011;9676;50.916;13.352;2023-05-07T03:51:55;15.20;;;13.60;;
19087;SDS011;9676;50.916;13.352;2023-05-07T03:54:45;16.30;;;14.60;;
19087;SDS011;9676;50.916;13.352;2023-05-07T03:57:37;15.50;;;13.90;;
19087;SDS011;9676;50.916;13.352;2023-05-07T04:00:27;16.23;;;14.00;;
19087;SDS011;9676;50.916;13.352;2023-05-07T04:03:21;16.60;;;14.80;;
19087;SDS011;9676;50.916;13.352;2023-05-07T04:06:11;16.50;;;14.80;;
19087;SDS011;9676;50.916;13.352;2023-05-07T04:09:03;17.83;;;15.10;;
19087;SDS011;9676;50.916;13.352;2023-05-07T04:11:54;18.13;;;15.70;;
19087;SDS011;9676;50.916;13.352;2023-05-07T04:14:45;16.87;;;15.17;;
19087;SDS011;9676;50.916;13.352;2023-05-07T04:17:35;15.97;;;14.23;;
19087;SDS011;9676;50.916;13.352;2023-05-07T04:20:25;18.73;;;15.23;;
19087;SDS011;9676;50.916;13.352;2023-05-07T04:23:20;16.40;;;14.70;;
19087;SDS011;9676;50.916;13.352;2023-05-07T04:26:10;16.07;;;14.40;;
19087;SDS011;9676;50.916;13.352;2023-05-07T04:29:02;15.90;;;14.40;;
19087;SDS011;9676;50.916;13.352;2023-05-07T04:31:55;16.93;;;15.13;;
19087;SDS011;9676;50.916;13.352;2023-05-07T04:34:47;16.33;;;14.63;;
19087;SDS011;9676;50.916;13.352;2023-05-07T04:37:36;17.80;;;15.90;;
19087;SDS011;9676;50.916;13.352;2023-05-07T04:40:26;16.70;;;15.00;;
19087;SDS011;9676;50.916;13.352;2023-05-07T04:43:16;15.43;;;13.70;;
19087;SDS011;9676;50.916;13.352;2023-05-07T04:46:09;17.47;;;15.60;;
19087;SDS011;9676;50.916;13.352;2023-05-07T04:49:01;16.30;;;14.60;;
19087;SDS011;9676;50.916;13.352;2023-05-07T04:51:50;16.97;;;15.07;;
19087;SDS011;9676;50.916;13.352;2023-05-07T04:54:42;16.33;;;14.67;;
19087;SDS011;9676;50.916;13.352;2023-05-07T04:57:32;18.00;;;16.10;;
19087;SDS011;9676;50.916;13.352;2023-05-07T05:00:22;16.77;;;15.07;;
19087;SDS011;9676;50.916;13.352;2023-05-07T05:03:14;17.47;;;14.63;;
19087;SDS011;9676;50.916;13.352;2023-05-07T05:06:05;16.43;;;14.60;;
19087;SDS011;9676;50.916;13.352;2023-05-07T05:08:54;15.57;;;13.90;;
19087;SDS011;9676;50.916;13.352;2023-05-07T05:11:45;16.40;;;14.50;;
19087;SDS011;9676;50.916;13.352;2023-05-07T05:14:35;15.47;;;13.93;;
19087;SDS011;9676;50.916;13.352;2023-05-07T05:17:24;15.67;;;14.03;;
19087;SDS011;9676;50.916;13.352;2023-05-07T05:20:14;15.67;;;14.07;;
19087;SDS011;9676;50.916;13.352;2023-05-07T05:23:05;14.77;;;13.27;;
19087;SDS011;9676;50.916;13.352;2023-05-07T05:25:57;15.60;;;14.00;;
19087;SDS011;9676;50.916;13.352;2023-05-07T05:28:50;15.57;;;13.97;;
19087;SDS011;9676;50.916;13.352;2023-05-07T05:31:42;16.50;;;14.70;;
19087;SDS011;9676;50.916;13.352;2023-05-07T05:34:32;15.23;;;13.70;;
19087;SDS011;9676;50.916;13.352;2023-05-07T05:37:23;14.50;;;13.00;;
19087;SDS011;9676;50.916;13.352;2023-05-07T05:40:15;15.10;;;13.50;;
19087;SDS011;9676;50.916;13.352;2023-05-07T05:43:05;15.37;;;13.30;;
19087;SDS011;9676;50.916;13.352;2023-05-07T05:45:57;14.07;;;12.60;;
19087;SDS011;9676;50.916;13.352;2023-05-07T05:48:49;14.27;;;12.80;;
19087;SDS011;9676;50.916;13.352;2023-05-07T05:51:38;14.20;;;12.60;;
19087;SDS011;9676;50.916;13.352;2023-05-07T05:54:28;13.63;;;12.30;;
19087;SDS011;9676;50.916;13.352;2023-05-07T05:57:19;14.77;;;13.27;;
19087;SDS011;9676;50.916;13.352;2023-05-07T06:00:09;13.90;;;12.40;;
19087;SDS011;9676;50.916;13.352;2023-05-07T06:03:05;13.23;;;11.93;;
19087;SDS011;9676;50.916;13.352;2023-05-07T06:05:56;13.33;;;12.03;;
19087;SDS011;9676;50.916;13.352;2023-05-07T06:08:47;13.50;;;12.20;;
19087;SDS011;9676;50.916;13.352;2023-05-07T06:11:41;13.00;;;11.70;;
19087;SDS011;9676;50.916;13.352;2023-05-07T06:14:34;12.90;;;11.60;;
19087;SDS011;9676;50.916;13.352;2023-05-07T06:17:23;12.93;;;11.67;;
19087;SDS011;9676;50.916;13.352;2023-05-07T06:20:13;12.63;;;11.43;;
19087;SDS011;9676;50.916;13.352;2023-05-07T06:23:02;12.33;;;11.23;;
19087;SDS011;9676;50.916;13.352;2023-05-07T06:25:53;13.60;;;12.30;;
19087;SDS011;9676;50.916;13.352;2023-05-07T06:28:48;12.70;;;11.50;;
19087;SDS011;9676;50.916;13.352;2023-05-07T06:31:39;12.80;;;11.60;;
19087;SDS011;9676;50.916;13.352;2023-05-07T06:34:29;12.60;;;11.40;;
19087;SDS011;9676;50.916;13.352;2023-05-07T06:37:19;13.40;;;12.10;;
19087;SDS011;9676;50.916;13.352;2023-05-07T06:40:14;13.33;;;12.03;;
19087;SDS011;9676;50.916;13.352;2023-05-07T06:43:05;14.23;;;12.80;;
19087;SDS011;9676;50.916;13.352;2023-05-07T06:46:05;14.10;;;12.70;;
19087;SDS011;9676;50.916;13.352;2023-05-07T06:48:56;12.53;;;11.33;;
19087;SDS011;9676;50.916;13.352;2023-05-07T06:51:47;12.70;;;11.50;;
19087;SDS011;9676;50.916;13.352;2023-05-07T06:54:36;12.93;;;11.63;;
19087;SDS011;9676;50.916;13.352;2023-05-07T06:57:26;13.60;;;12.30;;
19087;SDS011;9676;50.916;13.352;2023-05-07T07:00:16;12.70;;;11.37;;
19087;SDS011;9676;50.916;13.352;2023-05-07T07:03:11;12.53;;;11.33;;
19087;SDS011;9676;50.916;13.352;2023-05-07T07:06:02;13.03;;;11.73;;
19087;SDS011;9676;50.916;13.352;2023-05-07T07:08:52;12.63;;;11.50;;
19087;SDS011;9676;50.916;13.352;2023-05-07T07:11:42;12.27;;;11.10;;
19087;SDS011;9676;50.916;13.352;2023-05-07T07:14:31;12.47;;;11.33;;
19087;SDS011;9676;50.916;13.352;2023-05-07T07:17:21;12.40;;;11.20;;
19087;SDS011;9676;50.916;13.352;2023-05-07T07:20:11;12.60;;;11.40;;
19087;SDS011;9676;50.916;13.352;2023-05-07T07:23:05;14.17;;;11.93;;
19087;SDS011;9676;50.916;13.352;2023-05-07T07:25:54;12.80;;;11.50;;
19087;SDS011;9676;50.916;13.352;2023-05-07T07:28:44;12.50;;;11.30;;
19087;SDS011;9676;50.916;13.352;2023-05-07T07:31:38;14.07;;;12.67;;
19087;SDS011;9676;50.916;13.352;2023-05-07T07:34:28;13.37;;;12.07;;
19087;SDS011;9676;50.916;13.352;2023-05-07T07:37:20;13.60;;;12.20;;
19087;SDS011;9676;50.916;13.352;2023-05-07T07:40:12;13.43;;;12.23;;
19087;SDS011;9676;50.916;13.352;2023-05-07T07:43:02;14.40;;;11.90;;
19087;SDS011;9676;50.916;13.352;2023-05-07T07:45:53;14.73;;;13.20;;
19087;SDS011;9676;50.916;13.352;2023-05-07T07:48:43;15.53;;;13.37;;
19087;SDS011;9676;50.916;13.352;2023-05-07T07:51:33;13.70;;;12.37;;
19087;SDS011;9676;50.916;13.352;2023-05-07T07:54:23;14.40;;;12.00;;
19087;SDS011;9676;50.916;13.352;2023-05-07T07:57:14;13.97;;;12.20;;
19087;SDS011;9676;50.916;13.352;2023-05-07T08:00:04;13.30;;;12.00;;
19087;SDS011;9676;50.916;13.352;2023-05-07T08:03:15;13.13;;;11.87;;
19087;SDS011;9676;50.916;13.352;2023-05-07T08:06:10;13.27;;;11.97;;
19087;SDS011;9676;50.916;13.352;2023-05-07T08:09:02;12.67;;;11.47;;
19087;SDS011;9676;50.916;13.352;2023-05-07T08:11:52;12.93;;;11.63;;
19087;SDS011;9676;50.916;13.352;2023-05-07T08:14:43;12.60;;;11.40;;
19087;SDS011;9676;50.916;13.352;2023-05-07T08:17:33;12.30;;;11.10;;
19087;SDS011;9676;50.916;13.352;2023-05-07T08:20:23;12.23;;;11.00;;
19087;SDS011;9676;50.916;13.352;2023-05-07T08:23:13;11.40;;;10.40;;
19087;SDS011;9676;50.916;13.352;2023-05-07T08:26:03;11.80;;;10.60;;
19087;SDS011;9676;50.916;13.352;2023-05-07T08:28:53;11.33;;;10.33;;
19087;SDS011;9676;50.916;13.352;2023-05-07T08:31:44;11.90;;;10.80;;
19087;SDS011;9676;50.916;13.352;2023-05-07T08:34:33;11.73;;;10.67;;
19087;SDS011;9676;50.916;13.352;2023-05-07T08:37:25;11.20;;;10.20;;
19087;SDS011;9676;50.916;13.352;2023-05-07T08:40:15;11.97;;;10.87;;
19087;SDS011;9676;50.916;13.352;2023-05-07T08:43:05;11.80;;;10.70;;
19087;SDS011;9676;50.916;13.352;2023-05-07T08:45:57;11.53;;;10.43;;
19087;SDS011;9676;50.916;13.352;2023-05-07T08:48:56;11.20;;;10.20;;
19087;SDS011;9676;50.916;13.352;2023-05-07T08:51:45;11.60;;;10.50;;
19087;SDS011;9676;50.916;13.352;2023-05-07T08:54:36;11.63;;;10.60;;
19087;SDS011;9676;50.916;13.352;2023-05-07T08:57:28;11.33;;;10.33;;
19087;SDS011;9676;50.916;13.352;2023-05-07T09:00:18;11.30;;;10.30;;
19087;SDS011;9676;50.916;13.352;2023-05-07T09:03:10;12.80;;;10.80;;
19087;SDS011;9676;50.916;13.352;2023-05-07T09:06:06;11.10;;;10.10;;
19087;SDS011;9676;50.916;13.352;2023-05-07T09:08:55;11.80;;;10.60;;
19087;SDS011;9676;50.916;13.352;2023-05-07T09:11:48;12.10;;;11.00;;
19087;SDS011;9676;50.916;13.352;2023-05-07T09:14:47;12.27;;;11.07;;
19087;SDS011;9676;50.916;13.352;2023-05-07T09:17:38;12.40;;;11.20;;
19087;SDS011;9676;50.916;13.352;2023-05-07T09:20:29;13.10;;;11.80;;
19087;SDS011;9676;50.916;13.352;2023-05-07T09:23:22;13.30;;;12.00;;
19087;SDS011;9676;50.916;13.352;2023-05-07T09:26:13;12.43;;;11.23;;
19087;SDS011;9676;50.916;13.352;2023-05-07T09:29:03;12.90;;;11.60;;
19087;SDS011;9676;50.916;13.352;2023-05-07T09:31:53;12.63;;;11.33;;
19087;SDS011;9676;50.916;13.352;2023-05-07T09:34:44;12.57;;;11.40;;
19087;SDS011;9676;50.916;13.352;2023-05-07T09:37:36;12.40;;;11.20;;
19087;SDS011;9676;50.916;13.352;2023-05-07T09:40:28;12.10;;;11.00;;
19087;SDS011;9676;50.916;13.352;2023-05-07T09:43:24;12.37;;;11.17;;
19087;SDS011;9676;50.916;13.352;2023-05-07T09:46:17;12.00;;;10.90;;
19087;SDS011;9676;50.916;13.352;2023-05-07T09:49:13;11.90;;;10.80;;
19087;SDS011;9676;50.916;13.352;2023-05-07T09:52:13;12.00;;;10.90;;
19087;SDS011;9676;50.916;13.352;2023-05-07T09:55:10;12.00;;;10.90;;
19087;SDS011;9676;50.916;13.352;2023-05-07T09:58:03;12.47;;;11.27;;
19087;SDS011;9676;50.916;13.352;2023-05-07T10:00:54;11.80;;;10.70;;
19087;SDS011;9676;50.916;13.352;2023-05-07T10:03:45;11.80;;;10.70;;
19087;SDS011;9676;50.916;13.352;2023-05-07T10:06:36;11.50;;;10.50;;
19087;SDS011;9676;50.916;13.352;2023-05-07T10:09:26;11.40;;;10.40;;
19087;SDS011;9676;50.916;13.352;2023-05-07T10:12:16;12.00;;;10.80;;
19087;SDS011;9676;50.916;13.352;2023-05-07T10:15:09;11.97;;;10.87;;
19087;SDS011;9676;50.916;13.352;2023-05-07T10:18:02;11.70;;;10.70;;
19087;SDS011;9676;50.916;13.352;2023-05-07T10:20:53;11.20;;;10.20;;
19087;SDS011;9676;50.916;13.352;2023-05-07T10:23:57;11.40;;;10.30;;
19087;SDS011;9676;50.916;13.352;2023-05-07T10:26:55;11.87;;;10.77;;
19087;SDS011;9676;50.916;13.352;2023-05-07T10:29:49;11.10;;;10.10;;
19087;SDS011;9676;50.916;13.352;2023-05-07T10:32:54;11.27;;;10.27;;
19087;SDS011;9676;50.916;13.352;2023-05-07T10:35:55;11.93;;;10.83;;
19087;SDS011;9676;50.916;13.352;2023-05-07T10:38:50;11.30;;;10.30;;
19087;SDS011;9676;50.916;13.352;2023-05-07T10:41:40;11.20;;;10.30;;
19087;SDS011;9676;50.916;13.352;2023-05-07T10:44:30;11.03;;;10.13;;
19087;SDS011;9676;50.916;13.352;2023-05-07T10:47:26;11.97;;;10.77;;
19087;SDS011;9676;50.916;13.352;2023-05-07T10:50:23;11.47;;;10.47;;
19087;SDS011;9676;50.916;13.352;2023-05-07T10:53:23;10.90;;;10.00;;
19087;SDS011;9676;50.916;13.352;2023-05-07T10:56:27;11.20;;;10.20;;
19087;SDS011;9676;50.916;13.352;2023-05-07T10:59:30;11.60;;;10.50;;
19087;SDS011;9676;50.916;13.352;2023-05-07T11:03:06;11.40;;;10.40;;
19087;SDS011;9676;50.916;13.352;2023-05-07T11:06:10;11.53;;;10.53;;
19087;SDS011;9676;50.916;13.352;2023-05-07T11:09:16;11.57;;;10.50;;
19087;SDS011;9676;50.916;13.352;2023-05-07T11:12:16;11.50;;;10.50;;
19087;SDS011;9676;50.916;13.352;2023-05-07T11:15:12;11.70;;;10.70;;
19087;SDS011;9676;50.916;13.352;2023-05-07T11:18:04;11.60;;;10.60;;
19087;SDS011;9676;50.916;13.352;2023-05-07T11:20:58;11.87;;;10.77;;
19087;SDS011;9676;50.916;13.352;2023-05-07T11:24:09;11.80;;;10.80;;
19087;SDS011;9676;50.916;13.352;2023-05-07T11:27:12;11.53;;;10.53;;
19087;SDS011;9676;50.916;13.352;2023-05-07T11:30:02;11.63;;;10.63;;
19087;SDS011;9676;50.916;13.352;2023-05-07T11:32:53;11.83;;;10.73;;
19087;SDS011;9676;50.916;13.352;2023-05-07T11:35:43;11.50;;;10.50;;
19087;SDS011;9676;50.916;13.352;2023-05-07T11:38:36;12.20;;;11.10;;
19087;SDS011;9676;50.916;13.352;2023-05-07T11:41:34;12.37;;;11.10;;
19087;SDS011;9676;50.916;13.352;2023-05-07T11:44:25;11.67;;;10.67;;
19087;SDS011;9676;50.916;13.352;2023-05-07T11:47:31;12.03;;;10.93;;
19087;SDS011;9676;50.916;13.352;2023-05-07T11:50:21;11.67;;;10.57;;
19087;SDS011;9676;50.916;13.352;2023-05-07T11:53:11;12.33;;;11.07;;
19087;SDS011;9676;50.916;13.352;2023-05-07T11:56:02;11.43;;;10.43;;
19087;SDS011;9676;50.916;13.352;2023-05-07T11:58:57;11.70;;;10.60;;
19087;SDS011;9676;50.916;13.352;2023-05-07T12:01:46;15.40;;;11.00;;
19087;SDS011;9676;50.916;13.352;2023-05-07T12:04:37;11.80;;;10.70;;
19087;SDS011;9676;50.916;13.352;2023-05-07T12:07:27;12.07;;;10.97;;
19087;SDS011;9676;50.916;13.352;2023-05-07T12:10:17;12.40;;;11.30;;
19087;SDS011;9676;50.916;13.352;2023-05-07T12:13:13;11.80;;;10.70;;
19087;SDS011;9676;50.916;13.352;2023-05-07T12:16:05;11.60;;;10.60;;
19087;SDS011;9676;50.916;13.352;2023-05-07T12:18:56;12.10;;;11.00;;
19087;SDS011;9676;50.916;13.352;2023-05-07T12:21:46;11.53;;;10.53;;
19087;SDS011;9676;50.916;13.352;2023-05-07T12:24:46;12.40;;;11.20;;
19087;SDS011;9676;50.916;13.352;2023-05-07T12:27:37;12.63;;;11.43;;
19087;SDS011;9676;50.916;13.352;2023-05-07T12:30:29;12.80;;;11.60;;
19087;SDS011;9676;50.916;13.352;2023-05-07T12:33:23;11.70;;;10.70;;
19087;SDS011;9676;50.916;13.352;2023-05-07T12:36:15;11.80;;;10.70;;
19087;SDS011;9676;50.916;13.352;2023-05-07T12:39:04;11.90;;;10.80;;
19087;SDS011;9676;50.916;13.352;2023-05-07T12:41:56;11.60;;;10.60;;
19087;SDS011;9676;50.916;13.352;2023-05-07T12:44:47;12.23;;;11.13;;
19087;SDS011;9676;50.916;13.352;2023-05-07T12:47:36;11.97;;;10.87;;
19087;SDS011;9676;50.916;13.352;2023-05-07T12:50:30;11.80;;;10.70;;
19087;SDS011;9676;50.916;13.352;2023-05-07T12:53:21;11.53;;;10.53;;
19087;SDS011;9676;50.916;13.352;2023-05-07T12:56:12;12.97;;;11.77;;
19087;SDS011;9676;50.916;13.352;2023-05-07T12:59:04;11.77;;;10.77;;
19087;SDS011;9676;50.916;13.352;2023-05-07T13:01:54;12.40;;;11.30;;
19087;SDS011;9676;50.916;13.352;2023-05-07T13:04:43;11.80;;;10.70;;
19087;SDS011;9676;50.916;13.352;2023-05-07T13:07:34;11.70;;;10.67;;
19087;SDS011;9676;50.916;13.352;2023-05-07T13:10:24;13.20;;;11.90;;
19087;SDS011;9676;50.916;13.352;2023-05-07T13:13:14;11.97;;;10.97;;
19087;SDS011;9676;50.916;13.352;2023-05-07T13:16:04;13.00;;;11.80;;
19087;SDS011;9676;50.916;13.352;2023-05-07T13:18:55;13.03;;;11.83;;
19087;SDS011;9676;50.916;13.352;2023-05-07T13:21:45;12.23;;;11.13;;
19087;SDS011;9676;50.916;13.352;2023-05-07T13:24:36;12.70;;;11.50;;
19087;SDS011;9676;50.916;13.352;2023-05-07T13:27:25;12.93;;;11.63;;
19087;SDS011;9676;50.916;13.352;2023-05-07T13:30:14;13.00;;;11.40;;
19087;SDS011;9676;50.916;13.352;2023-05-07T13:33:04;12.33;;;11.23;;
19087;SDS011;9676;50.916;13.352;2023-05-07T13:35:54;12.80;;;11.60;;
19087;SDS011;9676;50.916;13.352;2023-05-07T13:38:45;13.73;;;12.43;;
19087;SDS011;9676;50.916;13.352;2023-05-07T13:41:36;12.13;;;11.03;;
19087;SDS011;9676;50.916;13.352;2023-05-07T13:44:25;11.87;;;10.77;;
19087;SDS011;9676;50.916;13.352;2023-05-07T13:47:15;12.70;;;11.50;;
19087;SDS011;9676;50.916;13.352;2023-05-07T13:50:05;12.50;;;11.40;;
19087;SDS011;9676;50.916;13.352;2023-05-07T13:52:56;12.50;;;11.40;;
19087;SDS011;9676;50.916;13.352;2023-05-07T13:55:46;12.67;;;11.57;;
19087;SDS011;9676;50.916;13.352;2023-05-07T13:58:37;13.10;;;11.90;;
19087;SDS011;9676;50.916;13.352;2023-05-07T14:01:43;13.70;;;12.30;;
19087;SDS011;9676;50.916;13.352;2023-05-07T14:04:32;13.03;;;11.73;;
19087;SDS011;9676;50.916;13.352;2023-05-07T14:07:22;12.40;;;11.30;;
19087;SDS011;9676;50.916;13.352;2023-05-07T14:10:11;13.37;;;12.17;;
19087;SDS011;9676;50.916;13.352;2023-05-07T14:13:01;13.60;;;12.30;;
19087;SDS011;9676;50.916;13.352;2023-05-07T14:15:52;12.83;;;11.63;;
19087;SDS011;9676;50.916;13.352;2023-05-07T14:18:41;12.23;;;11.13;;
19087;SDS011;9676;50.916;13.352;2023-05-07T14:21:32;12.93;;;11.73;;
19087;SDS011;9676;50.916;13.352;2023-05-07T14:24:21;12.67;;;11.47;;
19087;SDS011;9676;50.916;13.352;2023-05-07T14:27:25;12.80;;;11.50;;
19087;SDS011;9676;50.916;13.352;2023-05-07T14:30:14;12.60;;;11.40;;
19087;SDS011;9676;50.916;13.352;2023-05-07T14:33:05;12.97;;;11.80;;
19087;SDS011;9676;50.916;13.352;2023-05-07T14:35:55;13.57;;;12.27;;
19087;SDS011;9676;50.916;13.352;2023-05-07T14:38:44;12.97;;;11.77;;
19087;SDS011;9676;50.916;13.352;2023-05-07T14:41:34;12.37;;;11.27;;
19087;SDS011;9676;50.916;13.352;2023-05-07T14:44:23;12.90;;;11.70;;
19087;SDS011;9676;50.916;13.352;2023-05-07T14:47:13;13.40;;;12.13;;
19087;SDS011;9676;50.916;13.352;2023-05-07T14:50:07;13.20;;;11.90;;
19087;SDS011;9676;50.916;13.352;2023-05-07T14:52:58;13.17;;;11.97;;
19087;SDS011;9676;50.916;13.352;2023-05-07T14:55:47;13.77;;;12.37;;
19087;SDS011;9676;50.916;13.352;2023-05-07T14:58:37;12.77;;;11.60;;
19087;SDS011;9676;50.916;13.352;2023-05-07T15:01:26;12.70;;;11.60;;
19087;SDS011;9676;50.916;13.352;2023-05-07T15:04:16;13.10;;;11.90;;
19087;SDS011;9676;50.916;13.352;2023-05-07T15:07:06;12.87;;;11.67;;
19087;SDS011;9676;50.916;13.352;2023-05-07T15:09:56;12.87;;;11.67;;
19087;SDS011;9676;50.916;13.352;2023-05-07T15:12:45;12.33;;;11.23;;
19087;SDS011;9676;50.916;13.352;2023-05-07T15:15:35;12.70;;;11.50;;
19087;SDS011;9676;50.916;13.352;2023-05-07T15:18:24;12.47;;;11.27;;
19087;SDS011;9676;50.916;13.352;2023-05-07T15:21:14;12.63;;;11.43;;
19087;SDS011;9676;50.916;13.352;2023-05-07T15:24:06;12.90;;;11.70;;
19087;SDS011;9676;50.916;13.352;2023-05-07T15:26:57;13.07;;;11.87;;
19087;SDS011;9676;50.916;13.352;2023-05-07T15:29:46;13.10;;;11.80;;
19087;SDS011;9676;50.916;13.352;2023-05-07T15:32:36;12.67;;;11.47;;
19087;SDS011;9676;50.916;13.352;2023-05-07T15:35:25;12.40;;;11.30;;
19087;SDS011;9676;50.916;13.352;2023-05-07T15:38:15;12.57;;;11.37;;
19087;SDS011;9676;50.916;13.352;2023-05-07T15:41:06;12.27;;;11.17;;
19087;SDS011;9676;50.916;13.352;2023-05-07T15:43:56;13.27;;;12.07;;
19087;SDS011;9676;50.916;13.352;2023-05-07T15:46:45;12.47;;;11.30;;
19087;SDS011;9676;50.916;13.352;2023-05-07T15:49:35;12.20;;;11.10;;
19087;SDS011;9676;50.916;13.352;2023-05-07T15:52:24;12.00;;;10.80;;
19087;SDS011;9676;50.916;13.352;2023-05-07T15:55:15;11.73;;;10.63;;
19087;SDS011;9676;50.916;13.352;2023-05-07T15:58:06;11.60;;;10.60;;
19087;SDS011;9676;50.916;13.352;2023-05-07T16:00:55;12.63;;;11.43;;
19087;SDS011;9676;50.916;13.352;2023-05-07T16:03:45;11.97;;;10.80;;
19087;SDS011;9676;50.916;13.352;2023-05-07T16:06:35;12.00;;;10.90;;
19087;SDS011;9676;50.916;13.352;2023-05-07T16:09:24;11.50;;;10.40;;
19087;SDS011;9676;50.916;13.352;2023-05-07T16:12:15;12.00;;;10.90;;
19087;SDS011;9676;50.916;13.352;2023-05-07T16:15:07;11.10;;;10.10;;
19087;SDS011;9676;50.916;13.352;2023-05-07T16:17:57;11.70;;;10.60;;
19087;SDS011;9676;50.916;13.352;2023-05-07T16:20:47;11.53;;;10.43;;
19087;SDS011;9676;50.916;13.352;2023-05-07T16:23:36;11.33;;;10.33;;
19087;SDS011;9676;50.916;13.352;2023-05-07T16:26:26;11.93;;;10.73;;
19087;SDS011;9676;50.916;13.352;2023-05-07T16:29:15;11.93;;;10.83;;
19087;SDS011;9676;50.916;13.352;2023-05-07T16:32:08;12.30;;;11.20;;
19087;SDS011;9676;50.916;13.352;2023-05-07T16:34:57;12.10;;;11.00;;
19087;SDS011;9676;50.916;13.352;2023-05-07T16:37:47;11.47;;;10.47;;
19087;SDS011;9676;50.916;13.352;2023-05-07T16:40:36;12.03;;;10.90;;
19087;SDS011;9676;50.916;13.352;2023-05-07T16:43:26;12.53;;;11.37;;